Главная страница
METAR-TAF:

METAR-TAF

Аэропорты :

Крайстчерч, Новая Зеландия

широта: 43-29S, долгота: 172-33E, высота над уровнем моря: 38 м

Текущие метеонаблюдения

Эта сводка был подготовлена 12 минут назад, в 02:30 UTC
Ветер 3 Узел от южный
Температура 15°C
Влажность 39%
Давление 1015 hPa
Видимость 10 км и более

METAR: NZCH 220230Z AUTO 18003KT 9999 NCD 15/01 Q1015 NOSIG

Время: 14:42 (02:42 UTC)

Прогноз

Эта сводка был подготовлена 3 часа и 35 минут назад, в 23:07 UTC
Прогноз действительный с 22-го 00 UTC до 23-го 00 UTC
Ветер 5 Узел от юго-западный
Видимость 10 км и более

TAF: NZCH 212307Z 2200/2300 22005KT 9999 NSC

Метеонаблюдения и прогнозы для более 4000 аэропортов (сводки METAR и TAF).

Имеющиеся станции представлены на карте желтыми и красными точками.

Чтобы увидеть название станции, наведите на нее мышь.

Затем щелкните, чтобы увидеть метеонаблюдения и метеопрогнозы.

Управление картой: чтобы увеличить масштаб, щелкните зеленые кнопки с черным крестиком; чтобы уменьшить масштаб, щелкните зеленую кнопку с тире; для просмотра соседних карт щелкайте зеленые стрелки.


METAR-TAF: